CSN2390 ZSHC-ZUCK
Flight info
| Callsign | CSN2390 |
|---|---|
| Flight time | N/A |
| Altitude | 34100 |
| Route | NIVIK5E NIVIK W135 DOGVI W545 VEMEX W73 MADUK W51 LEGIV W164 ADGOL W50 XSH W80 IRPOG IRPGE1 |
| Aircraft | B77W/H-SDE1E2E3FGHIJ2J3J4J5M1RWXY/LB1D1 |
Departure
| Time | 2026-04-28 10:35 |
|---|---|
| Airport | Hangzhou Xiaoshan International Airport (ZSHC) |
Arrival
| Time | N/A |
|---|---|
| Airport | Chongqing Jiangbei International Airport (ZUCK) |
| Time | Latitude | Longitude | Altitude | Speed | Heading |
|---|---|---|---|---|---|
| 2026-04-28 10:16 | 30.23975 | 120.42300 | 35 ft | 0 kts | 137° |
| 2026-04-28 10:25 | 30.23976 | 120.42300 | 35 ft | 1 kts | 137° |
| 2026-04-28 10:25 | 30.23986 | 120.42288 | 35 ft | 2 kts | 137° |
| 2026-04-28 10:25 | 30.23997 | 120.42277 | 35 ft | 2 kts | 138° |
| 2026-04-28 10:26 | 30.24009 | 120.42268 | 35 ft | 2 kts | 155° |
| 2026-04-28 10:26 | 30.24021 | 120.42262 | 35 ft | 2 kts | 171° |
| 2026-04-28 10:26 | 30.24037 | 120.42261 | 35 ft | 2 kts | 187° |
| 2026-04-28 10:26 | 30.24051 | 120.42265 | 35 ft | 2 kts | 202° |
| 2026-04-28 10:27 | 30.24064 | 120.42274 | 35 ft | 2 kts | 217° |
| 2026-04-28 10:27 | 30.24075 | 120.42285 | 35 ft | 2 kts | 232° |
| 2026-04-28 10:27 | 30.24082 | 120.42300 | 35 ft | 2 kts | 245° |
| 2026-04-28 10:27 | 30.24089 | 120.42316 | 35 ft | 2 kts | 244° |
| 2026-04-28 10:28 | 30.24092 | 120.42323 | 35 ft | 0 kts | 243° |
| 2026-04-28 10:29 | 30.24087 | 120.42312 | 35 ft | 4 kts | 243° |
| 2026-04-28 10:30 | 30.24062 | 120.42255 | 35 ft | 10 kts | 243° |
| 2026-04-28 10:30 | 30.24059 | 120.42184 | 35 ft | 8 kts | 314° |
| 2026-04-28 10:30 | 30.24111 | 120.42149 | 35 ft | 8 kts | 332° |
| 2026-04-28 10:30 | 30.24162 | 120.42117 | 35 ft | 9 kts | 324° |
| 2026-04-28 10:31 | 30.24168 | 120.42049 | 35 ft | 11 kts | 242° |
| 2026-04-28 10:31 | 30.24128 | 120.41959 | 35 ft | 13 kts | 243° |
| 2026-04-28 10:31 | 30.24081 | 120.41851 | 35 ft | 16 kts | 243° |
| 2026-04-28 10:31 | 30.24025 | 120.41724 | 35 ft | 18 kts | 243° |
| 2026-04-28 10:32 | 30.23963 | 120.41584 | 35 ft | 20 kts | 243° |
| 2026-04-28 10:32 | 30.23894 | 120.41429 | 35 ft | 22 kts | 243° |
| 2026-04-28 10:32 | 30.23819 | 120.41260 | 35 ft | 24 kts | 243° |
| 2026-04-28 10:32 | 30.23738 | 120.41077 | 35 ft | 23 kts | 243° |
| 2026-04-28 10:33 | 30.23700 | 120.40990 | 35 ft | 11 kts | 245° |
| 2026-04-28 10:33 | 30.23711 | 120.40908 | 35 ft | 10 kts | 323° |
| 2026-04-28 10:33 | 30.23776 | 120.40870 | 35 ft | 10 kts | 334° |
| 2026-04-28 10:33 | 30.23835 | 120.40880 | 35 ft | 9 kts | 39° |
| 2026-04-28 10:34 | 30.23868 | 120.40939 | 35 ft | 12 kts | 63° |
| 2026-04-28 10:34 | 30.23990 | 120.41213 | 35 ft | 71 kts | 63° |
| 2026-04-28 10:34 | 30.24319 | 120.41956 | 35 ft | 133 kts | 62° |
| 2026-04-28 10:34 | 30.24801 | 120.43060 | 228 ft | 164 kts | 58° |
| 2026-04-28 10:35 | 30.25305 | 120.44179 | 958 ft | 161 kts | 58° |
| 2026-04-28 10:35 | 30.25835 | 120.45366 | 1477 ft | 171 kts | 59° |
| 2026-04-28 10:35 | 30.26394 | 120.46632 | 1853 ft | 185 kts | 60° |
| 2026-04-28 10:35 | 30.26975 | 120.47945 | 2514 ft | 183 kts | 61° |
| 2026-04-28 10:36 | 30.27548 | 120.49241 | 3160 ft | 183 kts | 62° |
| 2026-04-28 10:36 | 30.28128 | 120.50553 | 3760 ft | 184 kts | 63° |
| 2026-04-28 10:36 | 30.28720 | 120.51888 | 4256 ft | 190 kts | 64° |
| 2026-04-28 10:36 | 30.29323 | 120.53253 | 4774 ft | 193 kts | 65° |